KCDS

Details ICAO KCDS (CDS)
Name CHILDRESS MUNI
Region United States
Timezone America/Chicago (UTC-5.0)
Plans Departing 2
Arriving 2
Stats Elevation 1,954 ft / 596 m (AMSL)
Location 34.432018° -100.289306°
Runways 3
Magnetic Variation 5.303° E
Sunrise 2018-05-27 11:33:10 UTC / 2018-05-27 06:33:10 Local
Sunset 2018-05-28 01:46:24 UTC / 2018-05-27 20:46:24 Local
Advertisement - Login to hide

Runways

ID Width Length Bearing (true) Bearing (mag) Surface Threshold Offset Overrun Length
04 60 ft / 18 m 4,426 ft / 1,349 m 46.76° 41.46° Asphalt 0 ft / 0 m 0 ft / 0 m
13 150 ft / 46 m 4,197 ft / 1,279 m 133.86° 128.56° Asphalt 0 ft / 0 m 0 ft / 0 m
17 75 ft / 23 m 5,965 ft / 1,818 m 181.85° 176.55° Asphalt 0 ft / 0 m 0 ft / 0 m
22 60 ft / 18 m 4,426 ft / 1,349 m 226.77° 221.47° Asphalt 0 ft / 0 m 0 ft / 0 m
31 150 ft / 46 m 4,197 ft / 1,279 m 313.86° 308.56° Asphalt 0 ft / 0 m 0 ft / 0 m
35 75 ft / 23 m 5,965 ft / 1,818 m 1.85° 356.55° Asphalt 0 ft / 0 m 0 ft / 0 m

Map

Weather


0- 5 10 15 20 25 30 35+ Temperature / ° C

Clouds and Precipitation
Forecast for 2018-05-27 18:00 UTC. Updated 3 hours ago

Ground ~20,000 ft ~40,000 ft Winds

METAR

KCDS 271953Z AUTO 18011G20KT 10SM CLR 35/19 A2981 RMK AO2 SLP063 T03500189

TAF

TAF KCDS 271720Z 2718/2818 15011KT P6SM FEW120 SCT250

Frequencies

Recorded 135.12 MHz ASOS
Unicom 122.80 MHz CTAF/UNICOM
Warning: Do not use this data for real-world aviation or navigation. No guarantee of current accuracy is given.